sensor_id;sensor_type;location;lat;lon;timestamp;temperature;humidity
6654;DHT22;3363;50.942;7.034;2022-12-20T00:01:53;8.00;99.90
6654;DHT22;3363;50.942;7.034;2022-12-20T00:04:21;8.10;99.90
6654;DHT22;3363;50.942;7.034;2022-12-20T00:06:48;8.50;99.90
6654;DHT22;3363;50.942;7.034;2022-12-20T00:09:14;8.40;99.90
6654;DHT22;3363;50.942;7.034;2022-12-20T00:11:41;8.40;99.90
6654;DHT22;3363;50.942;7.034;2022-12-20T00:14:08;8.50;99.90
6654;DHT22;3363;50.942;7.034;2022-12-20T00:16:35;8.50;99.90
6654;DHT22;3363;50.942;7.034;2022-12-20T00:19:03;8.70;99.90
6654;DHT22;3363;50.942;7.034;2022-12-20T00:21:31;8.10;99.90
6654;DHT22;3363;50.942;7.034;2022-12-20T00:23:58;8.20;99.90
6654;DHT22;3363;50.942;7.034;2022-12-20T00:26:25;8.10;99.90
6654;DHT22;3363;50.942;7.034;2022-12-20T00:28:52;8.20;99.90
6654;DHT22;3363;50.942;7.034;2022-12-20T00:31:20;8.30;99.90
6654;DHT22;3363;50.942;7.034;2022-12-20T00:33:47;8.30;99.90
6654;DHT22;3363;50.942;7.034;2022-12-20T00:36:14;8.30;99.90
6654;DHT22;3363;50.942;7.034;2022-12-20T00:38:44;8.80;99.90
6654;DHT22;3363;50.942;7.034;2022-12-20T00:41:19;8.80;99.90
6654;DHT22;3363;50.942;7.034;2022-12-20T00:43:46;8.70;99.90
6654;DHT22;3363;50.942;7.034;2022-12-20T00:46:14;8.50;99.90
6654;DHT22;3363;50.942;7.034;2022-12-20T00:48:41;8.60;99.90
6654;DHT22;3363;50.942;7.034;2022-12-20T00:51:08;8.40;99.90
6654;DHT22;3363;50.942;7.034;2022-12-20T00:53:35;8.40;99.90
6654;DHT22;3363;50.942;7.034;2022-12-20T00:56:04;8.60;99.90
6654;DHT22;3363;50.942;7.034;2022-12-20T00:58:31;8.50;99.90
6654;DHT22;3363;50.942;7.034;2022-12-20T01:00:58;8.50;99.90
6654;DHT22;3363;50.942;7.034;2022-12-20T01:03:25;8.30;99.90
6654;DHT22;3363;50.942;7.034;2022-12-20T01:05:52;8.20;99.90
6654;DHT22;3363;50.942;7.034;2022-12-20T01:08:19;8.00;99.90
6654;DHT22;3363;50.942;7.034;2022-12-20T01:10:46;8.20;99.90
6654;DHT22;3363;50.942;7.034;2022-12-20T01:13:20;8.00;99.90
6654;DHT22;3363;50.942;7.034;2022-12-20T01:15:47;8.20;99.90
6654;DHT22;3363;50.942;7.034;2022-12-20T01:18:14;8.10;99.90
6654;DHT22;3363;50.942;7.034;2022-12-20T01:20:40;8.20;99.90
6654;DHT22;3363;50.942;7.034;2022-12-20T01:23:08;8.00;99.90
6654;DHT22;3363;50.942;7.034;2022-12-20T01:25:34;8.10;99.90
6654;DHT22;3363;50.942;7.034;2022-12-20T01:28:01;8.40;99.90
6654;DHT22;3363;50.942;7.034;2022-12-20T01:30:29;8.40;99.90
6654;DHT22;3363;50.942;7.034;2022-12-20T01:32:55;8.20;99.90
6654;DHT22;3363;50.942;7.034;2022-12-20T01:35:22;8.20;99.90
6654;DHT22;3363;50.942;7.034;2022-12-20T01:37:49;8.30;99.90
6654;DHT22;3363;50.942;7.034;2022-12-20T01:40:15;8.40;99.90
6654;DHT22;3363;50.942;7.034;2022-12-20T01:42:42;8.50;99.90
6654;DHT22;3363;50.942;7.034;2022-12-20T01:45:12;8.40;99.90
6654;DHT22;3363;50.942;7.034;2022-12-20T01:47:47;8.40;99.90
6654;DHT22;3363;50.942;7.034;2022-12-20T01:50:14;8.20;99.90
6654;DHT22;3363;50.942;7.034;2022-12-20T01:52:41;8.00;99.90
6654;DHT22;3363;50.942;7.034;2022-12-20T01:55:09;8.40;99.90
6654;DHT22;3363;50.942;7.034;2022-12-20T01:57:38;8.10;99.90
6654;DHT22;3363;50.942;7.034;2022-12-20T02:00:06;8.00;99.90
6654;DHT22;3363;50.942;7.034;2022-12-20T02:02:34;7.90;99.90
6654;DHT22;3363;50.942;7.034;2022-12-20T02:05:02;7.70;99.90
6654;DHT22;3363;50.942;7.034;2022-12-20T02:07:29;7.70;99.90
6654;DHT22;3363;50.942;7.034;2022-12-20T02:09:58;7.70;99.90
6654;DHT22;3363;50.942;7.034;2022-12-20T02:12:27;7.90;99.90
6654;DHT22;3363;50.942;7.034;2022-12-20T02:14:58;7.90;99.90
6654;DHT22;3363;50.942;7.034;2022-12-20T02:17:31;8.00;99.90
6654;DHT22;3363;50.942;7.034;2022-12-20T02:22:45;8.00;99.90
6654;DHT22;3363;50.942;7.034;2022-12-20T02:25:22;7.90;99.90
6654;DHT22;3363;50.942;7.034;2022-12-20T02:27:58;7.60;99.90
6654;DHT22;3363;50.942;7.034;2022-12-20T02:30:28;7.60;99.90
6654;DHT22;3363;50.942;7.034;2022-12-20T02:32:58;7.70;99.90
6654;DHT22;3363;50.942;7.034;2022-12-20T02:35:26;7.60;99.90
6654;DHT22;3363;50.942;7.034;2022-12-20T02:37:53;7.60;99.90
6654;DHT22;3363;50.942;7.034;2022-12-20T02:40:22;7.80;99.90
6654;DHT22;3363;50.942;7.034;2022-12-20T02:42:50;7.90;99.90
6654;DHT22;3363;50.942;7.034;2022-12-20T02:45:18;7.90;99.90
6654;DHT22;3363;50.942;7.034;2022-12-20T02:47:49;7.90;99.90
6654;DHT22;3363;50.942;7.034;2022-12-20T02:50:17;8.00;99.90
6654;DHT22;3363;50.942;7.034;2022-12-20T02:52:45;7.90;99.90
6654;DHT22;3363;50.942;7.034;2022-12-20T02:55:12;7.70;99.90
6654;DHT22;3363;50.942;7.034;2022-12-20T02:57:41;7.40;99.90
6654;DHT22;3363;50.942;7.034;2022-12-20T03:00:10;7.40;99.90
6654;DHT22;3363;50.942;7.034;2022-12-20T03:02:37;7.30;99.90
6654;DHT22;3363;50.942;7.034;2022-12-20T03:05:24;7.10;99.90
6654;DHT22;3363;50.942;7.034;2022-12-20T03:07:51;7.30;99.90
6654;DHT22;3363;50.942;7.034;2022-12-20T03:10:18;7.30;99.90
6654;DHT22;3363;50.942;7.034;2022-12-20T03:12:45;7.40;99.90
6654;DHT22;3363;50.942;7.034;2022-12-20T03:15:13;7.60;99.90
6654;DHT22;3363;50.942;7.034;2022-12-20T03:17:40;7.60;99.90
6654;DHT22;3363;50.942;7.034;2022-12-20T03:20:07;7.60;99.90
6654;DHT22;3363;50.942;7.034;2022-12-20T03:22:37;7.70;99.90
6654;DHT22;3363;50.942;7.034;2022-12-20T03:25:04;7.50;99.90
6654;DHT22;3363;50.942;7.034;2022-12-20T03:27:31;7.50;99.90
6654;DHT22;3363;50.942;7.034;2022-12-20T03:29:58;7.70;99.90
6654;DHT22;3363;50.942;7.034;2022-12-20T03:32:24;7.80;99.90
6654;DHT22;3363;50.942;7.034;2022-12-20T03:34:51;7.80;99.90
6654;DHT22;3363;50.942;7.034;2022-12-20T03:37:17;7.80;99.90
6654;DHT22;3363;50.942;7.034;2022-12-20T03:39:45;7.80;99.90
6654;DHT22;3363;50.942;7.034;2022-12-20T03:42:12;7.90;99.90
6654;DHT22;3363;50.942;7.034;2022-12-20T03:44:39;8.10;99.90
6654;DHT22;3363;50.942;7.034;2022-12-20T03:47:05;8.00;99.90
6654;DHT22;3363;50.942;7.034;2022-12-20T03:49:32;7.90;99.90
6654;DHT22;3363;50.942;7.034;2022-12-20T03:51:59;7.60;99.90
6654;DHT22;3363;50.942;7.034;2022-12-20T03:54:25;7.50;99.90
6654;DHT22;3363;50.942;7.034;2022-12-20T03:56:53;7.50;99.90
6654;DHT22;3363;50.942;7.034;2022-12-20T03:59:20;7.70;99.90
6654;DHT22;3363;50.942;7.034;2022-12-20T04:01:47;7.70;99.90
6654;DHT22;3363;50.942;7.034;2022-12-20T04:04:14;7.90;99.90
6654;DHT22;3363;50.942;7.034;2022-12-20T04:06:41;7.80;99.90
6654;DHT22;3363;50.942;7.034;2022-12-20T04:09:08;7.70;99.90
6654;DHT22;3363;50.942;7.034;2022-12-20T04:11:35;7.70;99.90
6654;DHT22;3363;50.942;7.034;2022-12-20T04:14:03;7.70;99.90
6654;DHT22;3363;50.942;7.034;2022-12-20T04:16:29;7.70;99.90
6654;DHT22;3363;50.942;7.034;2022-12-20T04:18:56;7.90;99.90
6654;DHT22;3363;50.942;7.034;2022-12-20T04:21:24;7.90;99.90
6654;DHT22;3363;50.942;7.034;2022-12-20T04:23:51;7.90;99.90
6654;DHT22;3363;50.942;7.034;2022-12-20T04:26:18;7.90;99.90
6654;DHT22;3363;50.942;7.034;2022-12-20T04:28:45;7.80;99.90
6654;DHT22;3363;50.942;7.034;2022-12-20T04:33:59;7.80;99.90
6654;DHT22;3363;50.942;7.034;2022-12-20T04:36:26;7.60;99.90
6654;DHT22;3363;50.942;7.034;2022-12-20T04:38:53;7.60;99.90
6654;DHT22;3363;50.942;7.034;2022-12-20T04:41:19;7.70;99.90
6654;DHT22;3363;50.942;7.034;2022-12-20T04:46:50;7.70;99.90
6654;DHT22;3363;50.942;7.034;2022-12-20T04:49:29;7.70;99.90
6654;DHT22;3363;50.942;7.034;2022-12-20T04:51:56;7.80;99.90
6654;DHT22;3363;50.942;7.034;2022-12-20T04:54:43;7.70;99.90
6654;DHT22;3363;50.942;7.034;2022-12-20T04:57:08;7.80;99.90
6654;DHT22;3363;50.942;7.034;2022-12-20T04:59:35;7.80;99.90
6654;DHT22;3363;50.942;7.034;2022-12-20T05:02:02;7.60;99.90
6654;DHT22;3363;50.942;7.034;2022-12-20T05:04:30;7.60;99.90
6654;DHT22;3363;50.942;7.034;2022-12-20T05:06:57;7.60;99.90
6654;DHT22;3363;50.942;7.034;2022-12-20T05:09:23;7.70;99.90
6654;DHT22;3363;50.942;7.034;2022-12-20T05:11:52;7.50;99.90
6654;DHT22;3363;50.942;7.034;2022-12-20T05:14:19;7.70;99.90
6654;DHT22;3363;50.942;7.034;2022-12-20T05:16:45;7.60;99.90
6654;DHT22;3363;50.942;7.034;2022-12-20T05:19:14;7.90;99.90
6654;DHT22;3363;50.942;7.034;2022-12-20T05:21:42;7.90;99.90
6654;DHT22;3363;50.942;7.034;2022-12-20T05:24:26;7.70;99.90
6654;DHT22;3363;50.942;7.034;2022-12-20T05:27:15;8.00;99.90
6654;DHT22;3363;50.942;7.034;2022-12-20T05:29:42;7.80;99.90
6654;DHT22;3363;50.942;7.034;2022-12-20T05:32:09;7.60;99.90
6654;DHT22;3363;50.942;7.034;2022-12-20T05:34:35;7.80;99.90
6654;DHT22;3363;50.942;7.034;2022-12-20T05:37:04;7.80;99.90
6654;DHT22;3363;50.942;7.034;2022-12-20T05:39:32;7.80;99.90
6654;DHT22;3363;50.942;7.034;2022-12-20T05:42:00;7.80;99.90
6654;DHT22;3363;50.942;7.034;2022-12-20T05:44:27;8.10;99.90
6654;DHT22;3363;50.942;7.034;2022-12-20T05:46:53;7.80;99.90
6654;DHT22;3363;50.942;7.034;2022-12-20T05:49:20;7.80;99.90
6654;DHT22;3363;50.942;7.034;2022-12-20T05:52:04;8.10;99.90
6654;DHT22;3363;50.942;7.034;2022-12-20T05:54:31;8.10;99.90
6654;DHT22;3363;50.942;7.034;2022-12-20T05:56:57;7.80;99.90
6654;DHT22;3363;50.942;7.034;2022-12-20T05:59:24;7.80;99.90
6654;DHT22;3363;50.942;7.034;2022-12-20T06:01:51;7.70;99.90
6654;DHT22;3363;50.942;7.034;2022-12-20T06:04:17;7.90;99.90
6654;DHT22;3363;50.942;7.034;2022-12-20T06:06:44;8.10;99.90
6654;DHT22;3363;50.942;7.034;2022-12-20T06:09:12;8.00;99.90
6654;DHT22;3363;50.942;7.034;2022-12-20T06:11:39;8.10;99.90
6654;DHT22;3363;50.942;7.034;2022-12-20T06:14:05;8.00;99.90
6654;DHT22;3363;50.942;7.034;2022-12-20T06:16:32;8.10;99.90
6654;DHT22;3363;50.942;7.034;2022-12-20T06:18:59;7.90;99.90
6654;DHT22;3363;50.942;7.034;2022-12-20T06:21:26;7.80;99.90
6654;DHT22;3363;50.942;7.034;2022-12-20T06:23:53;7.50;99.90
6654;DHT22;3363;50.942;7.034;2022-12-20T06:26:22;7.50;99.90
6654;DHT22;3363;50.942;7.034;2022-12-20T06:28:49;7.50;99.90
6654;DHT22;3363;50.942;7.034;2022-12-20T06:31:21;7.80;99.90
6654;DHT22;3363;50.942;7.034;2022-12-20T06:33:47;7.80;99.90
6654;DHT22;3363;50.942;7.034;2022-12-20T06:36:14;7.70;99.90
6654;DHT22;3363;50.942;7.034;2022-12-20T06:38:41;7.70;99.90
6654;DHT22;3363;50.942;7.034;2022-12-20T06:41:07;7.80;99.90
6654;DHT22;3363;50.942;7.034;2022-12-20T06:43:35;7.80;99.90
6654;DHT22;3363;50.942;7.034;2022-12-20T06:46:02;7.70;99.90
6654;DHT22;3363;50.942;7.034;2022-12-20T06:48:29;7.60;99.90
6654;DHT22;3363;50.942;7.034;2022-12-20T06:50:55;7.50;99.90
6654;DHT22;3363;50.942;7.034;2022-12-20T06:53:22;7.50;99.90
6654;DHT22;3363;50.942;7.034;2022-12-20T06:55:49;7.60;99.90
6654;DHT22;3363;50.942;7.034;2022-12-20T06:58:15;7.50;99.90
6654;DHT22;3363;50.942;7.034;2022-12-20T07:00:43;7.50;99.90
6654;DHT22;3363;50.942;7.034;2022-12-20T07:03:10;7.70;99.90
6654;DHT22;3363;50.942;7.034;2022-12-20T07:05:37;7.70;99.90
6654;DHT22;3363;50.942;7.034;2022-12-20T07:08:04;7.70;99.90
6654;DHT22;3363;50.942;7.034;2022-12-20T07:10:32;7.70;99.90
6654;DHT22;3363;50.942;7.034;2022-12-20T07:12:58;7.60;99.90
6654;DHT22;3363;50.942;7.034;2022-12-20T07:15:25;7.80;99.90
6654;DHT22;3363;50.942;7.034;2022-12-20T07:17:53;7.80;99.90
6654;DHT22;3363;50.942;7.034;2022-12-20T07:20:20;7.70;99.90
6654;DHT22;3363;50.942;7.034;2022-12-20T07:22:46;7.80;99.90
6654;DHT22;3363;50.942;7.034;2022-12-20T07:25:13;7.70;99.90
6654;DHT22;3363;50.942;7.034;2022-12-20T07:27:40;7.60;99.90
6654;DHT22;3363;50.942;7.034;2022-12-20T07:30:07;7.50;99.90
6654;DHT22;3363;50.942;7.034;2022-12-20T07:32:34;7.50;99.90
6654;DHT22;3363;50.942;7.034;2022-12-20T07:35:03;7.50;99.90
6654;DHT22;3363;50.942;7.034;2022-12-20T07:37:29;7.50;99.90
6654;DHT22;3363;50.942;7.034;2022-12-20T07:39:56;7.50;99.90
6654;DHT22;3363;50.942;7.034;2022-12-20T07:42:23;7.50;99.90
6654;DHT22;3363;50.942;7.034;2022-12-20T07:44:50;7.60;99.90
6654;DHT22;3363;50.942;7.034;2022-12-20T07:47:17;7.70;99.90
6654;DHT22;3363;50.942;7.034;2022-12-20T07:49:43;7.80;99.90
6654;DHT22;3363;50.942;7.034;2022-12-20T07:52:12;7.70;99.90
6654;DHT22;3363;50.942;7.034;2022-12-20T07:54:40;7.60;99.90
6654;DHT22;3363;50.942;7.034;2022-12-20T07:57:09;7.80;99.90
6654;DHT22;3363;50.942;7.034;2022-12-20T07:59:38;7.70;99.90
6654;DHT22;3363;50.942;7.034;2022-12-20T08:02:05;7.80;99.90
6654;DHT22;3363;50.942;7.034;2022-12-20T08:04:33;7.90;99.90
6654;DHT22;3363;50.942;7.034;2022-12-20T08:06:59;7.70;99.90
6654;DHT22;3363;50.942;7.034;2022-12-20T08:09:28;7.70;99.90
6654;DHT22;3363;50.942;7.034;2022-12-20T08:11:56;7.90;99.90
6654;DHT22;3363;50.942;7.034;2022-12-20T08:14:23;7.80;99.90
6654;DHT22;3363;50.942;7.034;2022-12-20T08:16:50;7.70;99.90
6654;DHT22;3363;50.942;7.034;2022-12-20T08:19:16;7.50;99.90
6654;DHT22;3363;50.942;7.034;2022-12-20T08:21:43;7.60;99.90
6654;DHT22;3363;50.942;7.034;2022-12-20T08:24:10;7.60;99.90
6654;DHT22;3363;50.942;7.034;2022-12-20T08:26:38;7.70;99.90
6654;DHT22;3363;50.942;7.034;2022-12-20T08:29:06;7.90;99.90
6654;DHT22;3363;50.942;7.034;2022-12-20T08:31:35;7.70;99.90
6654;DHT22;3363;50.942;7.034;2022-12-20T08:34:02;7.80;99.90
6654;DHT22;3363;50.942;7.034;2022-12-20T08:36:29;7.90;99.90
6654;DHT22;3363;50.942;7.034;2022-12-20T08:38:56;8.10;99.90
6654;DHT22;3363;50.942;7.034;2022-12-20T08:41:22;8.00;99.90
6654;DHT22;3363;50.942;7.034;2022-12-20T08:43:50;8.10;99.90
6654;DHT22;3363;50.942;7.034;2022-12-20T08:46:18;8.10;99.90
6654;DHT22;3363;50.942;7.034;2022-12-20T08:48:44;7.90;99.90
6654;DHT22;3363;50.942;7.034;2022-12-20T08:51:11;7.90;99.90
6654;DHT22;3363;50.942;7.034;2022-12-20T08:53:38;7.90;99.90
6654;DHT22;3363;50.942;7.034;2022-12-20T08:56:04;7.80;99.90
6654;DHT22;3363;50.942;7.034;2022-12-20T08:58:31;7.90;99.90
6654;DHT22;3363;50.942;7.034;2022-12-20T09:01:00;7.90;99.90
6654;DHT22;3363;50.942;7.034;2022-12-20T09:03:28;7.90;99.90
6654;DHT22;3363;50.942;7.034;2022-12-20T09:05:54;8.00;99.90
6654;DHT22;3363;50.942;7.034;2022-12-20T09:08:21;8.10;99.90
6654;DHT22;3363;50.942;7.034;2022-12-20T09:10:48;8.00;99.90
6654;DHT22;3363;50.942;7.034;2022-12-20T09:13:14;8.00;99.90
6654;DHT22;3363;50.942;7.034;2022-12-20T09:15:41;7.90;99.90
6654;DHT22;3363;50.942;7.034;2022-12-20T09:18:10;8.00;99.90
6654;DHT22;3363;50.942;7.034;2022-12-20T09:20:41;7.90;99.90
6654;DHT22;3363;50.942;7.034;2022-12-20T09:23:08;8.00;99.90
6654;DHT22;3363;50.942;7.034;2022-12-20T09:25:35;8.00;99.90
6654;DHT22;3363;50.942;7.034;2022-12-20T09:28:01;8.00;99.90
6654;DHT22;3363;50.942;7.034;2022-12-20T09:30:28;8.00;99.90
6654;DHT22;3363;50.942;7.034;2022-12-20T09:32:55;8.00;99.90
6654;DHT22;3363;50.942;7.034;2022-12-20T09:35:23;8.00;99.90
6654;DHT22;3363;50.942;7.034;2022-12-20T09:37:49;8.00;99.90
6654;DHT22;3363;50.942;7.034;2022-12-20T09:40:17;8.10;99.90
6654;DHT22;3363;50.942;7.034;2022-12-20T09:42:45;8.10;99.90
6654;DHT22;3363;50.942;7.034;2022-12-20T09:45:16;8.10;99.90
6654;DHT22;3363;50.942;7.034;2022-12-20T09:47:44;8.10;99.90
6654;DHT22;3363;50.942;7.034;2022-12-20T09:50:13;8.20;99.90
6654;DHT22;3363;50.942;7.034;2022-12-20T09:52:45;8.30;99.90
6654;DHT22;3363;50.942;7.034;2022-12-20T09:55:16;8.10;99.90
6654;DHT22;3363;50.942;7.034;2022-12-20T09:57:46;8.00;99.90
6654;DHT22;3363;50.942;7.034;2022-12-20T10:00:18;8.00;99.90
6654;DHT22;3363;50.942;7.034;2022-12-20T10:02:45;8.10;99.90
6654;DHT22;3363;50.942;7.034;2022-12-20T10:05:12;7.90;99.90
6654;DHT22;3363;50.942;7.034;2022-12-20T10:07:41;8.20;99.90
6654;DHT22;3363;50.942;7.034;2022-12-20T10:10:21;8.40;99.90
6654;DHT22;3363;50.942;7.034;2022-12-20T10:12:54;8.50;99.90
6654;DHT22;3363;50.942;7.034;2022-12-20T10:15:24;8.30;99.90
6654;DHT22;3363;50.942;7.034;2022-12-20T10:17:57;8.10;99.90
6654;DHT22;3363;50.942;7.034;2022-12-20T10:20:40;8.30;99.90
6654;DHT22;3363;50.942;7.034;2022-12-20T10:23:10;8.20;99.90
6654;DHT22;3363;50.942;7.034;2022-12-20T10:25:41;8.10;99.90
6654;DHT22;3363;50.942;7.034;2022-12-20T10:28:10;8.20;99.90
6654;DHT22;3363;50.942;7.034;2022-12-20T10:30:37;8.30;99.90
6654;DHT22;3363;50.942;7.034;2022-12-20T10:33:07;8.40;99.90
6654;DHT22;3363;50.942;7.034;2022-12-20T10:35:39;8.50;99.90
6654;DHT22;3363;50.942;7.034;2022-12-20T10:38:08;8.30;99.90
6654;DHT22;3363;50.942;7.034;2022-12-20T10:40:37;8.40;99.90
6654;DHT22;3363;50.942;7.034;2022-12-20T10:43:05;8.60;99.90
6654;DHT22;3363;50.942;7.034;2022-12-20T10:45:39;8.40;99.90
6654;DHT22;3363;50.942;7.034;2022-12-20T10:48:24;8.40;99.90
6654;DHT22;3363;50.942;7.034;2022-12-20T10:50:54;8.50;99.90
6654;DHT22;3363;50.942;7.034;2022-12-20T10:53:21;8.60;99.90
6654;DHT22;3363;50.942;7.034;2022-12-20T10:55:49;8.50;99.90
6654;DHT22;3363;50.942;7.034;2022-12-20T10:58:32;8.50;99.90
6654;DHT22;3363;50.942;7.034;2022-12-20T11:01:04;8.40;99.90
6654;DHT22;3363;50.942;7.034;2022-12-20T11:03:32;8.40;99.90
6654;DHT22;3363;50.942;7.034;2022-12-20T11:06:00;8.60;99.90
6654;DHT22;3363;50.942;7.034;2022-12-20T11:08:27;8.50;99.90
6654;DHT22;3363;50.942;7.034;2022-12-20T11:11:14;8.50;99.90
6654;DHT22;3363;50.942;7.034;2022-12-20T11:13:43;8.40;99.90
6654;DHT22;3363;50.942;7.034;2022-12-20T11:16:21;8.30;99.90
6654;DHT22;3363;50.942;7.034;2022-12-20T11:18:49;8.60;99.90
6654;DHT22;3363;50.942;7.034;2022-12-20T11:21:20;8.40;99.90
6654;DHT22;3363;50.942;7.034;2022-12-20T11:23:53;8.20;99.90
6654;DHT22;3363;50.942;7.034;2022-12-20T11:26:24;8.20;99.90
6654;DHT22;3363;50.942;7.034;2022-12-20T11:29:00;8.60;99.90
6654;DHT22;3363;50.942;7.034;2022-12-20T11:31:32;8.70;99.90
6654;DHT22;3363;50.942;7.034;2022-12-20T11:34:03;8.50;99.90
6654;DHT22;3363;50.942;7.034;2022-12-20T11:36:39;8.40;99.90
6654;DHT22;3363;50.942;7.034;2022-12-20T11:39:08;8.40;99.90
6654;DHT22;3363;50.942;7.034;2022-12-20T11:41:40;8.40;99.90
6654;DHT22;3363;50.942;7.034;2022-12-20T11:44:11;8.50;99.90
6654;DHT22;3363;50.942;7.034;2022-12-20T11:46:49;8.80;99.90
6654;DHT22;3363;50.942;7.034;2022-12-20T11:49:32;8.60;99.90
6654;DHT22;3363;50.942;7.034;2022-12-20T11:52:02;8.60;99.90
6654;DHT22;3363;50.942;7.034;2022-12-20T11:54:31;8.60;99.90
6654;DHT22;3363;50.942;7.034;2022-12-20T11:57:01;8.50;99.90
6654;DHT22;3363;50.942;7.034;2022-12-20T11:59:36;8.50;99.90
6654;DHT22;3363;50.942;7.034;2022-12-20T12:02:07;8.50;99.90
6654;DHT22;3363;50.942;7.034;2022-12-20T12:04:36;8.70;99.90
6654;DHT22;3363;50.942;7.034;2022-12-20T12:07:06;8.50;99.90
6654;DHT22;3363;50.942;7.034;2022-12-20T12:09:34;8.50;99.90
6654;DHT22;3363;50.942;7.034;2022-12-20T12:12:03;8.40;99.90
6654;DHT22;3363;50.942;7.034;2022-12-20T12:14:36;8.40;99.90
6654;DHT22;3363;50.942;7.034;2022-12-20T12:17:06;8.30;99.90
6654;DHT22;3363;50.942;7.034;2022-12-20T12:19:33;8.40;99.90
6654;DHT22;3363;50.942;7.034;2022-12-20T12:22:04;8.30;99.90
6654;DHT22;3363;50.942;7.034;2022-12-20T12:24:32;8.50;99.90
6654;DHT22;3363;50.942;7.034;2022-12-20T12:27:00;8.40;99.90
6654;DHT22;3363;50.942;7.034;2022-12-20T12:29:27;8.60;99.90
6654;DHT22;3363;50.942;7.034;2022-12-20T12:31:57;8.80;99.90
6654;DHT22;3363;50.942;7.034;2022-12-20T12:34:29;9.00;99.90
6654;DHT22;3363;50.942;7.034;2022-12-20T12:37:09;9.00;99.90
6654;DHT22;3363;50.942;7.034;2022-12-20T12:39:55;9.00;99.90
6654;DHT22;3363;50.942;7.034;2022-12-20T12:45:13;8.90;99.90
6654;DHT22;3363;50.942;7.034;2022-12-20T12:47:44;9.10;99.90
6654;DHT22;3363;50.942;7.034;2022-12-20T12:50:15;9.10;99.90
6654;DHT22;3363;50.942;7.034;2022-12-20T12:52:44;9.10;99.90
6654;DHT22;3363;50.942;7.034;2022-12-20T12:58:02;9.20;99.90
6654;DHT22;3363;50.942;7.034;2022-12-20T13:00:47;9.10;99.90
6654;DHT22;3363;50.942;7.034;2022-12-20T13:03:16;9.10;99.90
6654;DHT22;3363;50.942;7.034;2022-12-20T13:08:46;9.00;99.90
6654;DHT22;3363;50.942;7.034;2022-12-20T13:11:14;9.00;99.90
6654;DHT22;3363;50.942;7.034;2022-12-20T13:16:35;9.10;99.90
6654;DHT22;3363;50.942;7.034;2022-12-20T13:19:12;9.10;99.90
6654;DHT22;3363;50.942;7.034;2022-12-20T13:21:40;9.00;99.90
6654;DHT22;3363;50.942;7.034;2022-12-20T13:27:14;9.10;99.90
6654;DHT22;3363;50.942;7.034;2022-12-20T13:29:50;9.20;99.90
6654;DHT22;3363;50.942;7.034;2022-12-20T13:35:00;9.10;99.90
6654;DHT22;3363;50.942;7.034;2022-12-20T13:39:56;8.90;99.90
6654;DHT22;3363;50.942;7.034;2022-12-20T13:42:29;9.00;99.90
6654;DHT22;3363;50.942;7.034;2022-12-20T13:45:00;8.80;99.90
6654;DHT22;3363;50.942;7.034;2022-12-20T13:47:28;8.90;99.90
6654;DHT22;3363;50.942;7.034;2022-12-20T13:50:00;8.70;99.90
6654;DHT22;3363;50.942;7.034;2022-12-20T13:52:28;8.90;99.90
6654;DHT22;3363;50.942;7.034;2022-12-20T13:54:56;8.80;99.90
6654;DHT22;3363;50.942;7.034;2022-12-20T13:57:26;8.80;99.90
6654;DHT22;3363;50.942;7.034;2022-12-20T13:59:54;8.70;99.90
6654;DHT22;3363;50.942;7.034;2022-12-20T14:02:22;8.70;99.90
6654;DHT22;3363;50.942;7.034;2022-12-20T14:04:52;9.00;99.90
6654;DHT22;3363;50.942;7.034;2022-12-20T14:07:22;8.90;99.90
6654;DHT22;3363;50.942;7.034;2022-12-20T14:09:53;9.00;99.90
6654;DHT22;3363;50.942;7.034;2022-12-20T14:12:20;9.00;99.90
6654;DHT22;3363;50.942;7.034;2022-12-20T14:14:47;8.90;99.90
6654;DHT22;3363;50.942;7.034;2022-12-20T14:17:21;8.90;99.90
6654;DHT22;3363;50.942;7.034;2022-12-20T14:20:00;9.00;99.90
6654;DHT22;3363;50.942;7.034;2022-12-20T14:22:28;9.00;99.90
6654;DHT22;3363;50.942;7.034;2022-12-20T14:24:55;9.00;99.90
6654;DHT22;3363;50.942;7.034;2022-12-20T14:27:23;9.10;99.90
6654;DHT22;3363;50.942;7.034;2022-12-20T14:29:50;9.00;99.90
6654;DHT22;3363;50.942;7.034;2022-12-20T14:32:17;9.20;99.90
6654;DHT22;3363;50.942;7.034;2022-12-20T14:34:44;9.30;99.90
6654;DHT22;3363;50.942;7.034;2022-12-20T14:37:29;9.30;99.90
6654;DHT22;3363;50.942;7.034;2022-12-20T14:39:57;9.20;99.90
6654;DHT22;3363;50.942;7.034;2022-12-20T14:42:32;9.10;99.90
6654;DHT22;3363;50.942;7.034;2022-12-20T14:45:01;9.20;99.90
6654;DHT22;3363;50.942;7.034;2022-12-20T14:47:28;9.20;99.90
6654;DHT22;3363;50.942;7.034;2022-12-20T14:49:56;9.20;99.90
6654;DHT22;3363;50.942;7.034;2022-12-20T14:52:24;9.20;99.90
6654;DHT22;3363;50.942;7.034;2022-12-20T14:54:59;9.20;99.90
6654;DHT22;3363;50.942;7.034;2022-12-20T14:57:28;9.20;99.90
6654;DHT22;3363;50.942;7.034;2022-12-20T14:59:58;9.20;99.90
6654;DHT22;3363;50.942;7.034;2022-12-20T15:02:36;9.30;99.90
6654;DHT22;3363;50.942;7.034;2022-12-20T15:05:08;9.20;99.90
6654;DHT22;3363;50.942;7.034;2022-12-20T15:07:38;9.30;99.90
6654;DHT22;3363;50.942;7.034;2022-12-20T15:10:07;9.30;99.90
6654;DHT22;3363;50.942;7.034;2022-12-20T15:12:34;9.20;99.90
6654;DHT22;3363;50.942;7.034;2022-12-20T15:15:02;9.10;99.90
6654;DHT22;3363;50.942;7.034;2022-12-20T15:17:28;9.00;99.90
6654;DHT22;3363;50.942;7.034;2022-12-20T15:19:55;9.00;99.90
6654;DHT22;3363;50.942;7.034;2022-12-20T15:22:22;9.00;99.90
6654;DHT22;3363;50.942;7.034;2022-12-20T15:24:49;9.10;99.90
6654;DHT22;3363;50.942;7.034;2022-12-20T15:27:18;9.00;99.90
6654;DHT22;3363;50.942;7.034;2022-12-20T15:29:44;9.20;99.90
6654;DHT22;3363;50.942;7.034;2022-12-20T15:32:13;9.10;99.90
6654;DHT22;3363;50.942;7.034;2022-12-20T15:34:41;9.00;99.90
6654;DHT22;3363;50.942;7.034;2022-12-20T15:37:08;9.20;99.90
6654;DHT22;3363;50.942;7.034;2022-12-20T15:39:37;9.10;99.90
6654;DHT22;3363;50.942;7.034;2022-12-20T15:42:04;9.00;99.90
6654;DHT22;3363;50.942;7.034;2022-12-20T15:44:32;9.10;99.90
6654;DHT22;3363;50.942;7.034;2022-12-20T15:47:00;9.10;99.90
6654;DHT22;3363;50.942;7.034;2022-12-20T15:49:28;9.10;99.90
6654;DHT22;3363;50.942;7.034;2022-12-20T15:51:55;9.20;99.90
6654;DHT22;3363;50.942;7.034;2022-12-20T15:54:23;9.20;99.90
6654;DHT22;3363;50.942;7.034;2022-12-20T15:56:51;9.10;99.90
6654;DHT22;3363;50.942;7.034;2022-12-20T15:59:18;9.10;99.90
6654;DHT22;3363;50.942;7.034;2022-12-20T16:01:46;9.00;99.90
6654;DHT22;3363;50.942;7.034;2022-12-20T16:04:14;9.00;99.90
6654;DHT22;3363;50.942;7.034;2022-12-20T16:06:41;9.00;99.90
6654;DHT22;3363;50.942;7.034;2022-12-20T16:09:08;9.00;99.90
6654;DHT22;3363;50.942;7.034;2022-12-20T16:11:35;9.10;99.90
6654;DHT22;3363;50.942;7.034;2022-12-20T16:14:01;9.10;99.90
6654;DHT22;3363;50.942;7.034;2022-12-20T16:16:29;8.90;99.90
6654;DHT22;3363;50.942;7.034;2022-12-20T16:18:57;9.00;99.90
6654;DHT22;3363;50.942;7.034;2022-12-20T16:21:25;9.00;99.90
6654;DHT22;3363;50.942;7.034;2022-12-20T16:23:52;9.00;99.90
6654;DHT22;3363;50.942;7.034;2022-12-20T16:26:20;9.00;99.90
6654;DHT22;3363;50.942;7.034;2022-12-20T16:28:47;9.00;99.90
6654;DHT22;3363;50.942;7.034;2022-12-20T16:31:16;9.10;99.90
6654;DHT22;3363;50.942;7.034;2022-12-20T16:33:46;9.00;99.90
6654;DHT22;3363;50.942;7.034;2022-12-20T16:36:14;9.10;99.90
6654;DHT22;3363;50.942;7.034;2022-12-20T16:38:41;9.00;99.90
6654;DHT22;3363;50.942;7.034;2022-12-20T16:41:10;8.90;99.90
6654;DHT22;3363;50.942;7.034;2022-12-20T16:43:37;9.00;99.90
6654;DHT22;3363;50.942;7.034;2022-12-20T16:46:04;9.10;99.90
6654;DHT22;3363;50.942;7.034;2022-12-20T16:48:31;9.10;99.90
6654;DHT22;3363;50.942;7.034;2022-12-20T16:50:57;9.10;99.90
6654;DHT22;3363;50.942;7.034;2022-12-20T16:53:25;9.00;99.90
6654;DHT22;3363;50.942;7.034;2022-12-20T16:55:52;9.10;99.90